sensor_id;sensor_type;location;lat;lon;timestamp;temperature;humidity
21612;DHT22;47005;52.292;13.452;2023-02-01T00:01:53;5.80;99.90
21612;DHT22;47005;52.292;13.452;2023-02-01T00:04:19;5.70;99.90
21612;DHT22;47005;52.292;13.452;2023-02-01T00:06:45;5.70;99.90
21612;DHT22;47005;52.292;13.452;2023-02-01T00:09:11;5.70;99.90
21612;DHT22;47005;52.292;13.452;2023-02-01T00:11:36;5.60;99.90
21612;DHT22;47005;52.292;13.452;2023-02-01T00:14:02;5.70;99.90
21612;DHT22;47005;52.292;13.452;2023-02-01T00:16:29;5.70;99.90
21612;DHT22;47005;52.292;13.452;2023-02-01T00:19:00;5.60;99.90
21612;DHT22;47005;52.292;13.452;2023-02-01T00:21:26;5.60;99.90
21612;DHT22;47005;52.292;13.452;2023-02-01T00:23:52;5.60;99.90
21612;DHT22;47005;52.292;13.452;2023-02-01T00:26:32;5.60;99.90
21612;DHT22;47005;52.292;13.452;2023-02-01T00:28:59;5.60;99.90
21612;DHT22;47005;52.292;13.452;2023-02-01T00:31:25;5.70;99.90
21612;DHT22;47005;52.292;13.452;2023-02-01T00:33:51;5.70;99.90
21612;DHT22;47005;52.292;13.452;2023-02-01T00:36:17;5.70;99.90
21612;DHT22;47005;52.292;13.452;2023-02-01T00:38:42;5.70;99.90
21612;DHT22;47005;52.292;13.452;2023-02-01T00:41:11;5.80;99.90
21612;DHT22;47005;52.292;13.452;2023-02-01T00:43:37;5.80;99.90
21612;DHT22;47005;52.292;13.452;2023-02-01T00:46:04;5.70;99.90
21612;DHT22;47005;52.292;13.452;2023-02-01T00:48:29;5.70;99.90
21612;DHT22;47005;52.292;13.452;2023-02-01T00:51:02;5.70;99.90
21612;DHT22;47005;52.292;13.452;2023-02-01T00:53:29;5.70;99.90
21612;DHT22;47005;52.292;13.452;2023-02-01T00:55:55;5.80;99.90
21612;DHT22;47005;52.292;13.452;2023-02-01T00:58:21;5.80;99.90
21612;DHT22;47005;52.292;13.452;2023-02-01T01:00:49;5.80;99.90
21612;DHT22;47005;52.292;13.452;2023-02-01T01:03:15;5.90;99.90
21612;DHT22;47005;52.292;13.452;2023-02-01T01:05:48;5.90;99.90
21612;DHT22;47005;52.292;13.452;2023-02-01T01:08:14;5.90;99.90
21612;DHT22;47005;52.292;13.452;2023-02-01T01:10:41;5.90;99.90
21612;DHT22;47005;52.292;13.452;2023-02-01T01:13:08;5.80;99.90
21612;DHT22;47005;52.292;13.452;2023-02-01T01:15:38;5.80;99.90
21612;DHT22;47005;52.292;13.452;2023-02-01T01:18:05;5.90;99.90
21612;DHT22;47005;52.292;13.452;2023-02-01T01:20:31;5.80;99.90
21612;DHT22;47005;52.292;13.452;2023-02-01T01:22:58;5.80;99.90
21612;DHT22;47005;52.292;13.452;2023-02-01T01:25:24;5.80;99.90
21612;DHT22;47005;52.292;13.452;2023-02-01T01:27:50;5.90;99.90
21612;DHT22;47005;52.292;13.452;2023-02-01T01:30:16;5.80;99.90
21612;DHT22;47005;52.292;13.452;2023-02-01T01:32:41;5.80;99.90
21612;DHT22;47005;52.292;13.452;2023-02-01T01:35:07;5.80;99.90
21612;DHT22;47005;52.292;13.452;2023-02-01T01:37:33;5.80;99.90
21612;DHT22;47005;52.292;13.452;2023-02-01T01:39:58;5.80;99.90
21612;DHT22;47005;52.292;13.452;2023-02-01T01:42:24;5.80;99.90
21612;DHT22;47005;52.292;13.452;2023-02-01T01:47:36;5.80;99.90
21612;DHT22;47005;52.292;13.452;2023-02-01T01:50:04;5.90;99.90
21612;DHT22;47005;52.292;13.452;2023-02-01T01:52:31;5.90;99.90
21612;DHT22;47005;52.292;13.452;2023-02-01T01:54:57;5.80;99.90
21612;DHT22;47005;52.292;13.452;2023-02-01T01:57:27;5.80;99.90
21612;DHT22;47005;52.292;13.452;2023-02-01T02:00:08;5.80;99.90
21612;DHT22;47005;52.292;13.452;2023-02-01T02:02:36;5.80;99.90
21612;DHT22;47005;52.292;13.452;2023-02-01T02:05:03;5.80;99.90
21612;DHT22;47005;52.292;13.452;2023-02-01T02:07:32;5.80;99.90
21612;DHT22;47005;52.292;13.452;2023-02-01T02:09:59;5.80;99.90
21612;DHT22;47005;52.292;13.452;2023-02-01T02:12:25;5.80;99.90
21612;DHT22;47005;52.292;13.452;2023-02-01T02:14:51;5.80;99.90
21612;DHT22;47005;52.292;13.452;2023-02-01T02:42:52;5.80;99.90
21612;DHT22;47005;52.292;13.452;2023-02-01T02:48:37;5.70;99.90
21612;DHT22;47005;52.292;13.452;2023-02-01T02:56:44;5.80;99.90
21612;DHT22;47005;52.292;13.452;2023-02-01T02:59:29;5.80;99.90
21612;DHT22;47005;52.292;13.452;2023-02-01T03:02:14;5.80;99.90
21612;DHT22;47005;52.292;13.452;2023-02-01T03:04:59;5.80;99.90
21612;DHT22;47005;52.292;13.452;2023-02-01T03:13:01;5.90;99.90
21612;DHT22;47005;52.292;13.452;2023-02-01T03:15:37;5.90;99.90
21612;DHT22;47005;52.292;13.452;2023-02-01T03:18:10;5.90;99.90
21612;DHT22;47005;52.292;13.452;2023-02-01T03:20:40;6.00;99.90
21612;DHT22;47005;52.292;13.452;2023-02-01T03:23:07;6.00;99.90
21612;DHT22;47005;52.292;13.452;2023-02-01T03:25:34;6.00;99.90
21612;DHT22;47005;52.292;13.452;2023-02-01T03:28:07;5.90;99.90
21612;DHT22;47005;52.292;13.452;2023-02-01T03:30:40;5.90;99.90
21612;DHT22;47005;52.292;13.452;2023-02-01T03:33:09;6.00;99.90
21612;DHT22;47005;52.292;13.452;2023-02-01T03:44:16;6.00;99.90
21612;DHT22;47005;52.292;13.452;2023-02-01T03:49:28;6.00;99.90
21612;DHT22;47005;52.292;13.452;2023-02-01T03:51:56;6.00;99.90
21612;DHT22;47005;52.292;13.452;2023-02-01T03:54:24;6.00;99.90
21612;DHT22;47005;52.292;13.452;2023-02-01T03:56:52;6.00;99.90
21612;DHT22;47005;52.292;13.452;2023-02-01T03:59:19;6.00;99.90
21612;DHT22;47005;52.292;13.452;2023-02-01T04:01:45;6.00;99.90
21612;DHT22;47005;52.292;13.452;2023-02-01T04:04:11;6.00;99.90
21612;DHT22;47005;52.292;13.452;2023-02-01T04:06:45;6.00;99.90
21612;DHT22;47005;52.292;13.452;2023-02-01T04:09:11;6.00;99.90
21612;DHT22;47005;52.292;13.452;2023-02-01T04:11:37;6.00;99.90
21612;DHT22;47005;52.292;13.452;2023-02-01T04:14:02;6.10;99.90
21612;DHT22;47005;52.292;13.452;2023-02-01T04:16:33;6.10;99.90
21612;DHT22;47005;52.292;13.452;2023-02-01T04:18:58;6.10;99.90
21612;DHT22;47005;52.292;13.452;2023-02-01T04:21:27;6.10;99.90
21612;DHT22;47005;52.292;13.452;2023-02-01T04:23:53;6.10;99.90
21612;DHT22;47005;52.292;13.452;2023-02-01T04:26:19;6.10;99.90
21612;DHT22;47005;52.292;13.452;2023-02-01T04:28:46;6.10;99.90
21612;DHT22;47005;52.292;13.452;2023-02-01T04:31:16;6.10;99.90
21612;DHT22;47005;52.292;13.452;2023-02-01T04:33:42;6.10;99.90
21612;DHT22;47005;52.292;13.452;2023-02-01T04:36:08;6.10;99.90
21612;DHT22;47005;52.292;13.452;2023-02-01T04:38:33;6.10;99.90
21612;DHT22;47005;52.292;13.452;2023-02-01T04:40:59;6.20;99.90
21612;DHT22;47005;52.292;13.452;2023-02-01T04:43:25;6.20;99.90
21612;DHT22;47005;52.292;13.452;2023-02-01T04:45:51;6.20;99.90
21612;DHT22;47005;52.292;13.452;2023-02-01T04:48:18;6.20;99.90
21612;DHT22;47005;52.292;13.452;2023-02-01T04:50:45;6.20;99.90
21612;DHT22;47005;52.292;13.452;2023-02-01T04:53:17;6.20;99.90
21612;DHT22;47005;52.292;13.452;2023-02-01T04:55:43;6.20;99.90
21612;DHT22;47005;52.292;13.452;2023-02-01T04:58:09;6.20;99.90
21612;DHT22;47005;52.292;13.452;2023-02-01T05:00:36;6.20;99.90
21612;DHT22;47005;52.292;13.452;2023-02-01T05:03:02;6.20;99.90
21612;DHT22;47005;52.292;13.452;2023-02-01T05:05:28;6.30;99.90
21612;DHT22;47005;52.292;13.452;2023-02-01T05:07:54;6.30;99.90
21612;DHT22;47005;52.292;13.452;2023-02-01T05:10:19;6.30;99.90
21612;DHT22;47005;52.292;13.452;2023-02-01T05:12:45;6.30;99.90
21612;DHT22;47005;52.292;13.452;2023-02-01T05:15:30;6.30;99.90
21612;DHT22;47005;52.292;13.452;2023-02-01T05:17:56;6.30;99.90
21612;DHT22;47005;52.292;13.452;2023-02-01T05:20:22;6.30;99.90
21612;DHT22;47005;52.292;13.452;2023-02-01T05:22:48;6.30;99.90
21612;DHT22;47005;52.292;13.452;2023-02-01T05:25:13;6.40;99.90
21612;DHT22;47005;52.292;13.452;2023-02-01T05:27:39;6.40;99.90
21612;DHT22;47005;52.292;13.452;2023-02-01T05:30:05;6.40;99.90
21612;DHT22;47005;52.292;13.452;2023-02-01T05:32:31;6.30;99.90
21612;DHT22;47005;52.292;13.452;2023-02-01T05:34:57;6.30;99.90
21612;DHT22;47005;52.292;13.452;2023-02-01T05:37:23;6.30;99.90
21612;DHT22;47005;52.292;13.452;2023-02-01T05:39:48;6.40;99.90
21612;DHT22;47005;52.292;13.452;2023-02-01T05:42:14;6.40;99.90
21612;DHT22;47005;52.292;13.452;2023-02-01T05:44:40;6.40;99.90
21612;DHT22;47005;52.292;13.452;2023-02-01T05:47:06;6.40;99.90
21612;DHT22;47005;52.292;13.452;2023-02-01T05:49:32;6.40;99.90
21612;DHT22;47005;52.292;13.452;2023-02-01T05:51:57;6.40;99.90
21612;DHT22;47005;52.292;13.452;2023-02-01T05:54:23;6.40;99.90
21612;DHT22;47005;52.292;13.452;2023-02-01T05:56:49;6.40;99.90
21612;DHT22;47005;52.292;13.452;2023-02-01T05:59:14;6.40;99.90
21612;DHT22;47005;52.292;13.452;2023-02-01T06:01:40;6.40;99.90
21612;DHT22;47005;52.292;13.452;2023-02-01T06:04:06;6.40;99.90
21612;DHT22;47005;52.292;13.452;2023-02-01T06:06:31;6.50;99.90
21612;DHT22;47005;52.292;13.452;2023-02-01T06:08:57;6.50;99.90
21612;DHT22;47005;52.292;13.452;2023-02-01T06:11:23;6.40;99.90
21612;DHT22;47005;52.292;13.452;2023-02-01T06:13:48;6.40;99.90
21612;DHT22;47005;52.292;13.452;2023-02-01T06:16:14;6.40;99.90
21612;DHT22;47005;52.292;13.452;2023-02-01T06:18:41;6.40;99.90
21612;DHT22;47005;52.292;13.452;2023-02-01T06:21:07;6.40;99.90
21612;DHT22;47005;52.292;13.452;2023-02-01T06:23:34;6.40;99.90
21612;DHT22;47005;52.292;13.452;2023-02-01T06:28:27;6.40;99.90
21612;DHT22;47005;52.292;13.452;2023-02-01T06:30:53;6.40;99.90
21612;DHT22;47005;52.292;13.452;2023-02-01T06:33:19;6.40;99.90
21612;DHT22;47005;52.292;13.452;2023-02-01T06:35:44;6.50;99.90
21612;DHT22;47005;52.292;13.452;2023-02-01T06:38:11;6.50;99.90
21612;DHT22;47005;52.292;13.452;2023-02-01T06:40:37;6.50;99.90
21612;DHT22;47005;52.292;13.452;2023-02-01T06:43:03;6.50;99.90
21612;DHT22;47005;52.292;13.452;2023-02-01T06:45:29;6.40;99.90
21612;DHT22;47005;52.292;13.452;2023-02-01T06:47:55;6.50;99.90
21612;DHT22;47005;52.292;13.452;2023-02-01T06:50:20;6.50;99.90
21612;DHT22;47005;52.292;13.452;2023-02-01T06:52:46;6.40;99.90
21612;DHT22;47005;52.292;13.452;2023-02-01T06:55:12;6.50;99.90
21612;DHT22;47005;52.292;13.452;2023-02-01T06:57:38;6.50;99.90
21612;DHT22;47005;52.292;13.452;2023-02-01T07:00:05;6.50;99.90
21612;DHT22;47005;52.292;13.452;2023-02-01T07:02:31;6.50;99.90
21612;DHT22;47005;52.292;13.452;2023-02-01T07:04:56;6.40;99.90
21612;DHT22;47005;52.292;13.452;2023-02-01T07:07:22;6.50;99.90
21612;DHT22;47005;52.292;13.452;2023-02-01T07:09:49;6.50;99.90
21612;DHT22;47005;52.292;13.452;2023-02-01T07:12:15;6.50;99.90
21612;DHT22;47005;52.292;13.452;2023-02-01T07:14:40;6.50;99.90
21612;DHT22;47005;52.292;13.452;2023-02-01T07:17:06;6.50;99.90
21612;DHT22;47005;52.292;13.452;2023-02-01T07:19:32;6.50;99.90
21612;DHT22;47005;52.292;13.452;2023-02-01T07:21:58;6.50;99.90
21612;DHT22;47005;52.292;13.452;2023-02-01T07:24:24;6.50;99.90
21612;DHT22;47005;52.292;13.452;2023-02-01T07:26:49;6.40;99.90
21612;DHT22;47005;52.292;13.452;2023-02-01T07:29:17;6.40;99.90
21612;DHT22;47005;52.292;13.452;2023-02-01T07:31:42;6.40;99.90
21612;DHT22;47005;52.292;13.452;2023-02-01T07:34:08;6.50;99.90
21612;DHT22;47005;52.292;13.452;2023-02-01T07:36:34;6.50;99.90
21612;DHT22;47005;52.292;13.452;2023-02-01T07:39:04;6.50;99.90
21612;DHT22;47005;52.292;13.452;2023-02-01T07:41:30;6.50;99.90
21612;DHT22;47005;52.292;13.452;2023-02-01T07:43:56;6.50;99.90
21612;DHT22;47005;52.292;13.452;2023-02-01T07:46:22;6.50;99.90
21612;DHT22;47005;52.292;13.452;2023-02-01T07:48:48;6.50;99.90
21612;DHT22;47005;52.292;13.452;2023-02-01T07:51:15;6.50;99.90
21612;DHT22;47005;52.292;13.452;2023-02-01T07:53:42;6.50;99.90
21612;DHT22;47005;52.292;13.452;2023-02-01T07:56:19;6.40;99.90
21612;DHT22;47005;52.292;13.452;2023-02-01T07:58:49;6.40;99.90
21612;DHT22;47005;52.292;13.452;2023-02-01T08:01:20;6.40;99.90
21612;DHT22;47005;52.292;13.452;2023-02-01T08:03:51;6.30;99.90
21612;DHT22;47005;52.292;13.452;2023-02-01T08:06:18;6.30;99.90
21612;DHT22;47005;52.292;13.452;2023-02-01T08:08:45;6.30;99.90
21612;DHT22;47005;52.292;13.452;2023-02-01T08:11:12;6.30;99.90
21612;DHT22;47005;52.292;13.452;2023-02-01T08:13:38;6.30;99.90
21612;DHT22;47005;52.292;13.452;2023-02-01T08:16:06;6.20;99.90
21612;DHT22;47005;52.292;13.452;2023-02-01T08:18:33;6.20;99.90
21612;DHT22;47005;52.292;13.452;2023-02-01T08:21:17;6.20;99.90
21612;DHT22;47005;52.292;13.452;2023-02-01T08:23:43;6.10;99.90
21612;DHT22;47005;52.292;13.452;2023-02-01T08:26:23;6.10;99.90
21612;DHT22;47005;52.292;13.452;2023-02-01T08:28:55;6.10;99.90
21612;DHT22;47005;52.292;13.452;2023-02-01T08:31:23;6.10;99.90
21612;DHT22;47005;52.292;13.452;2023-02-01T08:33:51;6.00;99.90
21612;DHT22;47005;52.292;13.452;2023-02-01T08:36:18;6.00;99.90
21612;DHT22;47005;52.292;13.452;2023-02-01T08:38:44;6.00;99.90
21612;DHT22;47005;52.292;13.452;2023-02-01T08:41:15;6.00;99.90
21612;DHT22;47005;52.292;13.452;2023-02-01T08:43:42;6.00;99.90
21612;DHT22;47005;52.292;13.452;2023-02-01T08:46:08;6.00;99.90
21612;DHT22;47005;52.292;13.452;2023-02-01T08:48:35;6.00;99.90
21612;DHT22;47005;52.292;13.452;2023-02-01T08:51:02;5.90;99.90
21612;DHT22;47005;52.292;13.452;2023-02-01T08:53:29;5.90;99.90
21612;DHT22;47005;52.292;13.452;2023-02-01T08:55:54;5.90;99.90
21612;DHT22;47005;52.292;13.452;2023-02-01T08:58:20;5.90;99.90
21612;DHT22;47005;52.292;13.452;2023-02-01T09:00:47;5.90;99.90
21612;DHT22;47005;52.292;13.452;2023-02-01T09:03:13;5.80;99.90
21612;DHT22;47005;52.292;13.452;2023-02-01T09:05:39;5.80;99.90
21612;DHT22;47005;52.292;13.452;2023-02-01T09:08:05;5.80;99.90
21612;DHT22;47005;52.292;13.452;2023-02-01T09:10:31;5.80;99.90
21612;DHT22;47005;52.292;13.452;2023-02-01T09:12:57;5.80;99.90
21612;DHT22;47005;52.292;13.452;2023-02-01T09:15:22;5.80;99.90
21612;DHT22;47005;52.292;13.452;2023-02-01T09:17:48;5.80;99.90
21612;DHT22;47005;52.292;13.452;2023-02-01T09:20:14;5.80;99.90
21612;DHT22;47005;52.292;13.452;2023-02-01T09:22:40;5.80;99.90
21612;DHT22;47005;52.292;13.452;2023-02-01T09:25:07;5.80;99.90
21612;DHT22;47005;52.292;13.452;2023-02-01T09:27:33;5.80;99.90
21612;DHT22;47005;52.292;13.452;2023-02-01T09:29:59;5.80;99.90
21612;DHT22;47005;52.292;13.452;2023-02-01T09:32:25;5.80;99.90
21612;DHT22;47005;52.292;13.452;2023-02-01T09:34:52;5.70;99.90
21612;DHT22;47005;52.292;13.452;2023-02-01T09:37:18;5.70;99.90
21612;DHT22;47005;52.292;13.452;2023-02-01T09:39:43;5.70;99.90
21612;DHT22;47005;52.292;13.452;2023-02-01T09:47:25;5.70;99.90
21612;DHT22;47005;52.292;13.452;2023-02-01T09:49:59;5.70;99.90
21612;DHT22;47005;52.292;13.452;2023-02-01T09:52:45;5.70;99.90
21612;DHT22;47005;52.292;13.452;2023-02-01T09:55:38;5.70;99.90
21612;DHT22;47005;52.292;13.452;2023-02-01T09:58:19;5.70;99.90
21612;DHT22;47005;52.292;13.452;2023-02-01T10:00:53;5.80;99.90
21612;DHT22;47005;52.292;13.452;2023-02-01T10:03:20;5.80;99.90
21612;DHT22;47005;52.292;13.452;2023-02-01T10:10:52;5.80;99.90
21612;DHT22;47005;52.292;13.452;2023-02-01T10:13:29;5.80;99.90
21612;DHT22;47005;52.292;13.452;2023-02-01T10:19:06;5.90;99.90
21612;DHT22;47005;52.292;13.452;2023-02-01T10:27:14;5.90;99.90
21612;DHT22;47005;52.292;13.452;2023-02-01T10:29:43;6.00;99.90
21612;DHT22;47005;52.292;13.452;2023-02-01T10:32:17;6.00;99.90
21612;DHT22;47005;52.292;13.452;2023-02-01T10:34:48;6.00;99.90
21612;DHT22;47005;52.292;13.452;2023-02-01T10:37:32;6.00;99.90
21612;DHT22;47005;52.292;13.452;2023-02-01T10:40:18;6.00;99.90
21612;DHT22;47005;52.292;13.452;2023-02-01T10:42:47;6.00;99.90
21612;DHT22;47005;52.292;13.452;2023-02-01T10:45:17;6.00;99.90
21612;DHT22;47005;52.292;13.452;2023-02-01T10:47:44;6.00;99.90
21612;DHT22;47005;52.292;13.452;2023-02-01T10:53:05;6.10;99.90
21612;DHT22;47005;52.292;13.452;2023-02-01T10:55:34;6.10;99.90
21612;DHT22;47005;52.292;13.452;2023-02-01T10:58:02;6.10;99.90
21612;DHT22;47005;52.292;13.452;2023-02-01T11:00:40;6.10;99.90
21612;DHT22;47005;52.292;13.452;2023-02-01T11:05:56;6.10;99.90
21612;DHT22;47005;52.292;13.452;2023-02-01T11:08:22;6.20;99.90
21612;DHT22;47005;52.292;13.452;2023-02-01T11:11:00;6.20;99.90
21612;DHT22;47005;52.292;13.452;2023-02-01T11:13:36;6.20;99.90
21612;DHT22;47005;52.292;13.452;2023-02-01T11:16:04;6.30;99.90
21612;DHT22;47005;52.292;13.452;2023-02-01T11:18:35;6.30;99.90
21612;DHT22;47005;52.292;13.452;2023-02-01T11:21:02;6.40;99.90
21612;DHT22;47005;52.292;13.452;2023-02-01T11:23:30;6.40;99.90
21612;DHT22;47005;52.292;13.452;2023-02-01T11:26:14;6.40;99.90
21612;DHT22;47005;52.292;13.452;2023-02-01T11:28:52;6.40;99.90
21612;DHT22;47005;52.292;13.452;2023-02-01T11:31:18;6.50;99.90
21612;DHT22;47005;52.292;13.452;2023-02-01T11:33:51;6.50;99.90
21612;DHT22;47005;52.292;13.452;2023-02-01T11:36:23;6.60;99.90
21612;DHT22;47005;52.292;13.452;2023-02-01T11:44:32;6.60;99.90
21612;DHT22;47005;52.292;13.452;2023-02-01T11:47:27;6.60;99.90
21612;DHT22;47005;52.292;13.452;2023-02-01T11:49:59;6.70;99.90
21612;DHT22;47005;52.292;13.452;2023-02-01T11:55:43;6.70;99.90
21612;DHT22;47005;52.292;13.452;2023-02-01T12:11:43;6.90;99.90
21612;DHT22;47005;52.292;13.452;2023-02-01T12:15:02;6.90;99.90
21612;DHT22;47005;52.292;13.452;2023-02-01T12:22:46;7.00;99.90
21612;DHT22;47005;52.292;13.452;2023-02-01T12:42:25;7.20;99.90
21612;DHT22;47005;52.292;13.452;2023-02-01T12:45:16;7.30;99.90
21612;DHT22;47005;52.292;13.452;2023-02-01T12:47:49;7.30;99.90
21612;DHT22;47005;52.292;13.452;2023-02-01T12:50:20;7.30;99.90
21612;DHT22;47005;52.292;13.452;2023-02-01T12:52:49;7.30;99.90
21612;DHT22;47005;52.292;13.452;2023-02-01T12:55:22;7.40;99.90
21612;DHT22;47005;52.292;13.452;2023-02-01T12:57:53;7.40;99.90
21612;DHT22;47005;52.292;13.452;2023-02-01T13:00:32;7.40;99.90
21612;DHT22;47005;52.292;13.452;2023-02-01T13:03:29;7.40;99.90
21612;DHT22;47005;52.292;13.452;2023-02-01T13:06:16;7.40;99.90
21612;DHT22;47005;52.292;13.452;2023-02-01T13:14:17;7.50;99.90
21612;DHT22;47005;52.292;13.452;2023-02-01T13:16:48;7.40;99.90
21612;DHT22;47005;52.292;13.452;2023-02-01T13:22:25;7.40;99.90
21612;DHT22;47005;52.292;13.452;2023-02-01T13:24:57;7.40;99.90
21612;DHT22;47005;52.292;13.452;2023-02-01T13:27:27;7.40;99.90
21612;DHT22;47005;52.292;13.452;2023-02-01T13:29:59;7.40;99.90
21612;DHT22;47005;52.292;13.452;2023-02-01T13:38:32;7.40;99.90
21612;DHT22;47005;52.292;13.452;2023-02-01T13:41:30;7.40;99.90
21612;DHT22;47005;52.292;13.452;2023-02-01T13:44:12;7.40;99.90
21612;DHT22;47005;52.292;13.452;2023-02-01T13:46:41;7.40;99.90
21612;DHT22;47005;52.292;13.452;2023-02-01T13:49:21;7.40;99.90
21612;DHT22;47005;52.292;13.452;2023-02-01T13:51:51;7.40;99.90
21612;DHT22;47005;52.292;13.452;2023-02-01T13:54:32;7.50;99.90
21612;DHT22;47005;52.292;13.452;2023-02-01T13:57:00;7.50;99.90
21612;DHT22;47005;52.292;13.452;2023-02-01T14:05:06;7.50;99.90
21612;DHT22;47005;52.292;13.452;2023-02-01T14:07:33;7.50;99.90
21612;DHT22;47005;52.292;13.452;2023-02-01T14:12:50;7.60;99.90
21612;DHT22;47005;52.292;13.452;2023-02-01T14:15:23;7.60;99.90
21612;DHT22;47005;52.292;13.452;2023-02-01T14:17:49;7.60;99.90
21612;DHT22;47005;52.292;13.452;2023-02-01T14:23:03;7.60;99.90
21612;DHT22;47005;52.292;13.452;2023-02-01T14:25:33;7.60;99.90
21612;DHT22;47005;52.292;13.452;2023-02-01T14:27:59;7.60;99.90
21612;DHT22;47005;52.292;13.452;2023-02-01T14:30:26;7.60;99.90
21612;DHT22;47005;52.292;13.452;2023-02-01T14:32:53;7.60;99.90
21612;DHT22;47005;52.292;13.452;2023-02-01T14:35:25;7.60;99.90
21612;DHT22;47005;52.292;13.452;2023-02-01T14:37:53;7.60;99.90
21612;DHT22;47005;52.292;13.452;2023-02-01T14:40:27;7.60;99.90
21612;DHT22;47005;52.292;13.452;2023-02-01T14:42:54;7.60;99.90
21612;DHT22;47005;52.292;13.452;2023-02-01T14:47:53;7.50;99.90
21612;DHT22;47005;52.292;13.452;2023-02-01T15:01:17;7.60;99.90
21612;DHT22;47005;52.292;13.452;2023-02-01T15:04:03;7.60;99.90
21612;DHT22;47005;52.292;13.452;2023-02-01T15:06:38;7.60;99.90
21612;DHT22;47005;52.292;13.452;2023-02-01T15:14:28;7.60;99.90
21612;DHT22;47005;52.292;13.452;2023-02-01T15:16:53;7.50;99.90
21612;DHT22;47005;52.292;13.452;2023-02-01T15:19:24;7.40;99.90
21612;DHT22;47005;52.292;13.452;2023-02-01T15:21:54;7.30;99.90
21612;DHT22;47005;52.292;13.452;2023-02-01T15:24:25;7.30;99.90
21612;DHT22;47005;52.292;13.452;2023-02-01T15:26:52;7.20;99.90
21612;DHT22;47005;52.292;13.452;2023-02-01T15:29:20;7.10;99.90
21612;DHT22;47005;52.292;13.452;2023-02-01T15:31:51;7.00;99.90
21612;DHT22;47005;52.292;13.452;2023-02-01T15:34:18;6.90;99.90
21612;DHT22;47005;52.292;13.452;2023-02-01T15:36:44;6.80;99.90
21612;DHT22;47005;52.292;13.452;2023-02-01T15:39:23;6.80;99.90
21612;DHT22;47005;52.292;13.452;2023-02-01T15:41:59;6.70;99.90
21612;DHT22;47005;52.292;13.452;2023-02-01T15:44:42;6.70;99.90
21612;DHT22;47005;52.292;13.452;2023-02-01T15:47:25;6.70;99.90
21612;DHT22;47005;52.292;13.452;2023-02-01T15:49:53;6.60;99.90
21612;DHT22;47005;52.292;13.452;2023-02-01T15:52:39;6.60;99.90
21612;DHT22;47005;52.292;13.452;2023-02-01T15:57:53;6.60;99.90
21612;DHT22;47005;52.292;13.452;2023-02-01T16:03:03;6.60;99.90
21612;DHT22;47005;52.292;13.452;2023-02-01T16:05:36;6.60;99.90
21612;DHT22;47005;52.292;13.452;2023-02-01T16:08:15;6.50;99.90
21612;DHT22;47005;52.292;13.452;2023-02-01T16:10:44;6.50;99.90
21612;DHT22;47005;52.292;13.452;2023-02-01T16:13:11;6.50;99.90
21612;DHT22;47005;52.292;13.452;2023-02-01T16:15:38;6.50;99.90
21612;DHT22;47005;52.292;13.452;2023-02-01T16:18:04;6.50;99.90
21612;DHT22;47005;52.292;13.452;2023-02-01T16:20:30;6.50;99.90
21612;DHT22;47005;52.292;13.452;2023-02-01T16:22:56;6.50;99.90
21612;DHT22;47005;52.292;13.452;2023-02-01T16:25:21;6.40;99.90
21612;DHT22;47005;52.292;13.452;2023-02-01T16:27:48;6.40;99.90
21612;DHT22;47005;52.292;13.452;2023-02-01T16:30:13;6.40;99.90
21612;DHT22;47005;52.292;13.452;2023-02-01T16:32:40;6.30;99.90
21612;DHT22;47005;52.292;13.452;2023-02-01T16:35:15;6.30;99.90
21612;DHT22;47005;52.292;13.452;2023-02-01T16:37:44;6.20;99.90
21612;DHT22;47005;52.292;13.452;2023-02-01T16:40:20;6.00;99.90
21612;DHT22;47005;52.292;13.452;2023-02-01T16:42:50;6.00;99.90
21612;DHT22;47005;52.292;13.452;2023-02-01T16:45:17;6.00;99.90
21612;DHT22;47005;52.292;13.452;2023-02-01T16:47:49;5.90;99.90
21612;DHT22;47005;52.292;13.452;2023-02-01T16:50:20;5.80;99.90
21612;DHT22;47005;52.292;13.452;2023-02-01T16:52:46;5.80;99.90
21612;DHT22;47005;52.292;13.452;2023-02-01T16:55:17;5.70;99.90
21612;DHT22;47005;52.292;13.452;2023-02-01T16:57:43;5.70;99.90
21612;DHT22;47005;52.292;13.452;2023-02-01T17:00:10;5.70;99.90
21612;DHT22;47005;52.292;13.452;2023-02-01T17:02:43;5.70;99.90
21612;DHT22;47005;52.292;13.452;2023-02-01T17:05:11;5.60;99.90
21612;DHT22;47005;52.292;13.452;2023-02-01T17:07:38;5.50;99.90
21612;DHT22;47005;52.292;13.452;2023-02-01T17:10:05;5.50;99.90
21612;DHT22;47005;52.292;13.452;2023-02-01T17:12:32;5.40;99.90
21612;DHT22;47005;52.292;13.452;2023-02-01T17:14:59;5.50;99.90
21612;DHT22;47005;52.292;13.452;2023-02-01T17:17:35;5.40;99.90
21612;DHT22;47005;52.292;13.452;2023-02-01T17:20:03;5.40;99.90
21612;DHT22;47005;52.292;13.452;2023-02-01T17:22:29;5.40;99.90
21612;DHT22;47005;52.292;13.452;2023-02-01T17:24:55;5.40;99.90
21612;DHT22;47005;52.292;13.452;2023-02-01T17:27:20;5.40;99.90
21612;DHT22;47005;52.292;13.452;2023-02-01T17:29:46;5.30;99.90
21612;DHT22;47005;52.292;13.452;2023-02-01T17:32:18;5.30;99.90
21612;DHT22;47005;52.292;13.452;2023-02-01T17:34:44;5.30;99.90
21612;DHT22;47005;52.292;13.452;2023-02-01T17:37:25;5.20;99.90
21612;DHT22;47005;52.292;13.452;2023-02-01T17:39:51;5.40;99.90
21612;DHT22;47005;52.292;13.452;2023-02-01T17:42:19;5.30;99.90
21612;DHT22;47005;52.292;13.452;2023-02-01T17:44:45;5.30;99.90
21612;DHT22;47005;52.292;13.452;2023-02-01T17:47:11;5.30;99.90
21612;DHT22;47005;52.292;13.452;2023-02-01T17:49:37;5.30;99.90
21612;DHT22;47005;52.292;13.452;2023-02-01T17:52:04;5.30;99.90
21612;DHT22;47005;52.292;13.452;2023-02-01T17:54:32;5.30;99.90
21612;DHT22;47005;52.292;13.452;2023-02-01T17:56:59;5.40;99.90
21612;DHT22;47005;52.292;13.452;2023-02-01T17:59:27;5.30;99.90
21612;DHT22;47005;52.292;13.452;2023-02-01T18:01:53;5.30;99.90
21612;DHT22;47005;52.292;13.452;2023-02-01T18:04:25;5.30;99.90
21612;DHT22;47005;52.292;13.452;2023-02-01T18:06:51;5.30;99.90
21612;DHT22;47005;52.292;13.452;2023-02-01T18:09:16;5.30;99.90
21612;DHT22;47005;52.292;13.452;2023-02-01T18:11:42;5.30;99.90
21612;DHT22;47005;52.292;13.452;2023-02-01T18:14:11;5.30;99.90
21612;DHT22;47005;52.292;13.452;2023-02-01T18:16:37;5.30;99.90
21612;DHT22;47005;52.292;13.452;2023-02-01T18:19:03;5.30;99.90
21612;DHT22;47005;52.292;13.452;2023-02-01T18:21:41;5.30;99.90
21612;DHT22;47005;52.292;13.452;2023-02-01T18:24:16;5.30;99.90
21612;DHT22;47005;52.292;13.452;2023-02-01T18:26:43;5.40;99.90
21612;DHT22;47005;52.292;13.452;2023-02-01T18:29:09;5.40;99.90
21612;DHT22;47005;52.292;13.452;2023-02-01T18:31:39;5.50;99.90
21612;DHT22;47005;52.292;13.452;2023-02-01T18:34:08;5.50;99.90
21612;DHT22;47005;52.292;13.452;2023-02-01T18:36:34;5.40;99.90
21612;DHT22;47005;52.292;13.452;2023-02-01T18:38:59;5.40;99.90